• Join FlightAware (Why Join?)
  • Login
  • US Flag 
09:24AM EDT


 

Airport Tracker/Info


-or-


 

Live Flight TrackerFlight Track Log ✈ JBU24 ✈ 13-May-2013 ✈ KJFK - KSYR

Flight Track Log - Related Links

Times and Time Zones

All times are in EDT time to prevent confusion due to time zone crossing. See the JBU24 flight status page for this flight to view local times or setup timezone preferences in your user account.

Time Position Orientation Groundspeed Altitude Reporting Facility
EDT Latitude Longitude Course Direction KTS MPH feet Rate Location/Type
06:33PM 40.5667 -73.8167 304° West 221 254 3,300  Level New York TRACON
06:34PM 40.8114 -74.0114 323° Northwest  Level FlightAware Approximate
06:34PM 40.5500 -73.7333 105° East 269 310 6,600  Level New York TRACON
06:35PM 40.8695 -74.0958 311° West  Level FlightAware Approximate
06:35PM 40.6167 -73.6833 30° Northeast 243 280 10,300  Level New York TRACON
06:36PM 40.9274 -74.1805 316° Northwest  Level FlightAware Approximate
06:36PM 40.6833 -73.6333 30° Northeast 298 343 11,900  Level New York TRACON
06:37PM 40.9894 -74.2601 316° Northwest  Level FlightAware Approximate
06:38PM 41.0472 -74.3445 304° West  Level FlightAware Approximate
06:38PM 40.8500 -73.6500 356° North 355 409 16,000  Level New York TRACON
06:40PM 40.9500 -73.8667 301° West 347 399 17,000 300 Climbing New York TRACON
06:41PM 41.0000 -73.9667 304° West 350 403 17,000  Level New York TRACON
06:43PM 41.0942 -74.2372 295° West 347 399 17,000  Level New York Center
06:44PM 41.1425 -74.3583 298° West 347 399 17,000  Level New York Center
06:45PM 41.1811 -74.4594 297° West 342 394 17,000  Level New York Center
06:46PM 41.2294 -74.5781 298° West 342 394 17,100 1,200 Climbing New York Center
06:47PM 41.2808 -74.6639 309° West 335 386 19,500 2,280 Climbing New York Center
06:48PM 41.3397 -74.7667 307° West 339 390 21,700 1,260 Climbing New York Center
06:49PM 41.4047 -74.8728 309° West 357 411 22,000 120 Climbing New York Center
06:50PM 41.4700 -74.9764 310° West 363 418 22,000  Level New York Center
06:51PM 41.5328 -75.0803 309° West 363 418 22,000  Level New York Center
06:52PM 41.5994 -75.1928 308° West 358 412 22,000  Level New York Center
06:53PM 41.6603 -75.2939 309° West 358 412 22,000  Level New York Center
06:54PM 41.7231 -75.3953 310° West 358 412 22,000  Level New York Center
06:55PM 41.7833 -75.4997 308° West 358 412 22,000  Level New York Center
06:56PM 41.8478 -75.6044 310° West 358 412 22,000 -300 Level New York Center
06:57PM 41.9081 -75.7092 308° West 358 412 21,500 -780 Descending New York Center
06:58PM 41.9661 -75.8139 307° West 358 412 20,500 -1,020 Descending New York Center
06:59PM 42.0264 -75.9164 308° West 358 412 19,500 -1,020 Descending New York Center
07:00PM 42.0883 -76.0189 309° West 358 412 18,500 -960 Descending New York Center
07:01PM 42.1531 -76.1108 314° West 352 405 17,600 -1,020 Descending New York Center
07:02PM 42.2439 -76.1294 351° North 319 367 16,500 -1,500 Descending New York Center
07:03PM 42.3450 -76.1203 North 335 386 14,600 -1,860 Descending Boston Center
07:04PM 42.4392 -76.1089 North 333 383 12,800 -1,740 Descending Boston Center
07:05PM 42.5333 -76.0978 North 322 371 11,000 -1,020 Descending Boston Center
07:06PM 42.6153 -76.0742 12° North 294 338 10,700 -1,440 Descending Boston Center
07:07PM 42.7000 -76.0311 20° North 265 305 8,000 -2,280 Descending Boston Center
07:09PM 42.7678 -75.9983 20° North 266 306 6,000 -2,100 Descending Boston Center
07:09PM 42.8294 -75.9650 22° Northeast 258 297 4,000 -1,380 Descending Boston Center
07:10PM 42.8883 -75.9431 15° North 234 269 3,500 -300 Descending Boston Center
07:11PM 42.9469 -75.9406 North 182 209 3,500 -300 Level Boston Center
07:12PM 42.9928 -75.9403 360° North 176 203 2,900 -420 Descending Boston Center
07:13PM 43.0269 -75.9822 318° Northwest 153 176 2,700 -240 Descending Boston Center